Rock Rapids, IA

4:52 AM CST on February 01, 2015 (GMT -0600)
IEM Rock Rapids _ Central Lyon MS KELO-TV | Change Station
CLOSE
Current Station
Personal Weather Station
Location: Rock Rapids, IA
Elevation: 1345 ft
Nearby Weather Stations
Active Advisory: Winter Storm Warning Active Notice: Local Storm Report

Elev 1345 ft 43.42 °N, 96.17 °W | Updated 94 days ago

Snow
Snow
16 °F
Feels Like -1 °F
N
23
Wind Variable Wind from NNE
Gusts 32 mph

Today
High -- | Low -- °F
--% Chance of Precip.
Yesterday
High -- | Low -- °F
Precip. -- in
7:40 AM 5:36 PM
Waxing Gibbous, 94% visible
Pressure 30.04 in
Visibility 1.8 miles
Clouds Overcast 1200 ft
Windchill -1 °F
Dew Point 10 °F
Humidity 84%
Rainfall -999.00 in
Snow Depth Not available.
UV 0 out of 12
Pollen .10 out of 12
Air Quality Not available.
Flu Activity Not available.
METAR KLYV 011035Z AUTO 03015G31KT 1 3/4SM -SN OVC012 M07/M10 A3004 RMK AO2

More Conditions Fewer Conditions

Pressure 30.04 in
Visibility 1.8 miles
Clouds Overcast 1200 ft
Windchill -1 °F
Dew Point 10 °F
Humidity 84%
Rainfall -999.00 in
Snow Depth Not available.
UV 0 out of 12
Pollen .10 out of 12
Air Quality Not available.
Flu Activity Not available.
METAR KLYV 011035Z AUTO 03015G31KT 1 3/4SM -SN OVC012 M07/M10 A3004 RMK AO2

More Conditions Fewer Conditions

10-Day Weather Forecast

Almanac

Astronomy

Feb. 01, 2015 Rise Set
Actual Time
Civil Twilight
Nautical Twilight
Astronomical Twilight
Moon
Length of Visible Light
Length of Day
Tomorrow will be .
, % of the Moon is Illuminated

Today's Extremes

State Highs State Lows

Community

WunderPhotos

Upload Photos

1,792,343 photos uploaded!

WunderBlogs® & News

Nearby

Air Quality

  Air Quality AQ Index Pollutant
Not available.

Snow Depth

Station Depth Elevation

Earthquake Activity

City Distance Mag. Time & Date
Minimum magnitude displayed is 2.5.

Coastal Water Temperatures

Place Temperature

Nearby Weather Stations